sensor_id;sensor_type;location;lat;lon;timestamp;P1;durP1;ratioP1;P2;durP2;ratioP2
4391;SDS011;2210;51.938;8.488;2023-07-08T00:02:54;1.40;;;1.30;;
4391;SDS011;2210;51.938;8.488;2023-07-08T00:06:54;2.00;;;1.50;;
4391;SDS011;2210;51.938;8.488;2023-07-08T00:10:55;1.67;;;1.57;;
4391;SDS011;2210;51.938;8.488;2023-07-08T00:14:58;2.90;;;1.77;;
4391;SDS011;2210;51.938;8.488;2023-07-08T00:18:58;2.23;;;1.67;;
4391;SDS011;2210;51.938;8.488;2023-07-08T00:23:02;2.17;;;1.60;;
4391;SDS011;2210;51.938;8.488;2023-07-08T00:27:12;2.23;;;1.47;;
4391;SDS011;2210;51.938;8.488;2023-07-08T00:31:18;1.70;;;1.43;;
4391;SDS011;2210;51.938;8.488;2023-07-08T00:35:26;1.63;;;1.53;;
4391;SDS011;2210;51.938;8.488;2023-07-08T00:39:31;1.70;;;1.60;;
4391;SDS011;2210;51.938;8.488;2023-07-08T00:43:45;1.60;;;1.50;;
4391;SDS011;2210;51.938;8.488;2023-07-08T00:47:48;3.17;;;2.27;;
4391;SDS011;2210;51.938;8.488;2023-07-08T00:51:50;2.70;;;2.00;;
4391;SDS011;2210;51.938;8.488;2023-07-08T00:55:51;4.10;;;1.60;;
4391;SDS011;2210;51.938;8.488;2023-07-08T01:00:13;2.07;;;1.67;;
4391;SDS011;2210;51.938;8.488;2023-07-08T01:08:37;3.20;;;1.90;;
4391;SDS011;2210;51.938;8.488;2023-07-08T01:12:39;2.00;;;1.80;;
4391;SDS011;2210;51.938;8.488;2023-07-08T01:16:42;4.83;;;1.80;;
4391;SDS011;2210;51.938;8.488;2023-07-08T01:20:43;5.10;;;1.50;;
4391;SDS011;2210;51.938;8.488;2023-07-08T01:24:44;5.40;;;2.23;;
4391;SDS011;2210;51.938;8.488;2023-07-08T01:28:45;5.10;;;2.50;;
4391;SDS011;2210;51.938;8.488;2023-07-08T01:32:49;2.67;;;2.10;;
4391;SDS011;2210;51.938;8.488;2023-07-08T01:36:55;5.00;;;2.27;;
4391;SDS011;2210;51.938;8.488;2023-07-08T01:40:58;4.40;;;2.67;;
4391;SDS011;2210;51.938;8.488;2023-07-08T01:45:06;3.30;;;2.20;;
4391;SDS011;2210;51.938;8.488;2023-07-08T01:49:13;2.43;;;2.23;;
4391;SDS011;2210;51.938;8.488;2023-07-08T01:53:16;2.42;;;1.63;;
4391;SDS011;2210;51.938;8.488;2023-07-08T01:57:22;3.10;;;2.10;;
4391;SDS011;2210;51.938;8.488;2023-07-08T02:01:28;2.33;;;1.77;;
4391;SDS011;2210;51.938;8.488;2023-07-08T02:05:28;3.33;;;1.63;;
4391;SDS011;2210;51.938;8.488;2023-07-08T02:09:29;2.28;;;1.60;;
4391;SDS011;2210;51.938;8.488;2023-07-08T02:13:32;2.80;;;1.70;;
4391;SDS011;2210;51.938;8.488;2023-07-08T02:17:32;4.70;;;1.73;;
4391;SDS011;2210;51.938;8.488;2023-07-08T02:21:33;1.60;;;1.43;;
4391;SDS011;2210;51.938;8.488;2023-07-08T02:25:33;3.30;;;1.70;;
4391;SDS011;2210;51.938;8.488;2023-07-08T02:29:33;3.80;;;1.45;;
4391;SDS011;2210;51.938;8.488;2023-07-08T02:33:40;2.50;;;2.03;;
4391;SDS011;2210;51.938;8.488;2023-07-08T02:37:40;3.00;;;2.00;;
4391;SDS011;2210;51.938;8.488;2023-07-08T02:41:43;2.08;;;1.65;;
4391;SDS011;2210;51.938;8.488;2023-07-08T02:45:44;3.80;;;1.70;;
4391;SDS011;2210;51.938;8.488;2023-07-08T02:49:47;3.73;;;2.10;;
4391;SDS011;2210;51.938;8.488;2023-07-08T02:53:48;7.10;;;1.60;;
4391;SDS011;2210;51.938;8.488;2023-07-08T02:57:49;1.53;;;1.37;;
4391;SDS011;2210;51.938;8.488;2023-07-08T03:01:50;1.75;;;1.65;;
4391;SDS011;2210;51.938;8.488;2023-07-08T03:05:57;1.80;;;1.40;;
4391;SDS011;2210;51.938;8.488;2023-07-08T03:09:58;2.20;;;1.73;;
4391;SDS011;2210;51.938;8.488;2023-07-08T03:13:59;2.10;;;1.87;;
4391;SDS011;2210;51.938;8.488;2023-07-08T03:17:59;2.53;;;1.93;;
4391;SDS011;2210;51.938;8.488;2023-07-08T03:22:06;1.60;;;1.50;;
4391;SDS011;2210;51.938;8.488;2023-07-08T03:26:09;2.53;;;1.73;;
4391;SDS011;2210;51.938;8.488;2023-07-08T03:30:14;2.00;;;1.63;;
4391;SDS011;2210;51.938;8.488;2023-07-08T03:34:15;9.63;;;2.03;;
4391;SDS011;2210;51.938;8.488;2023-07-08T03:38:16;3.37;;;1.97;;
4391;SDS011;2210;51.938;8.488;2023-07-08T03:42:16;2.30;;;2.00;;
4391;SDS011;2210;51.938;8.488;2023-07-08T03:46:17;2.72;;;1.63;;
4391;SDS011;2210;51.938;8.488;2023-07-08T03:50:22;2.10;;;1.70;;
4391;SDS011;2210;51.938;8.488;2023-07-08T03:54:27;1.77;;;1.60;;
4391;SDS011;2210;51.938;8.488;2023-07-08T03:58:27;4.10;;;1.57;;
4391;SDS011;2210;51.938;8.488;2023-07-08T04:02:31;2.60;;;1.47;;
4391;SDS011;2210;51.938;8.488;2023-07-08T04:06:37;7.10;;;2.10;;
4391;SDS011;2210;51.938;8.488;2023-07-08T04:10:40;4.30;;;1.80;;
4391;SDS011;2210;51.938;8.488;2023-07-08T04:14:47;2.90;;;1.80;;
4391;SDS011;2210;51.938;8.488;2023-07-08T04:18:50;1.83;;;1.60;;
4391;SDS011;2210;51.938;8.488;2023-07-08T04:22:54;3.07;;;1.50;;
4391;SDS011;2210;51.938;8.488;2023-07-08T04:27:00;2.47;;;1.80;;
4391;SDS011;2210;51.938;8.488;2023-07-08T04:31:07;1.60;;;1.50;;
4391;SDS011;2210;51.938;8.488;2023-07-08T04:35:10;2.77;;;1.70;;
4391;SDS011;2210;51.938;8.488;2023-07-08T04:39:10;1.83;;;1.73;;
4391;SDS011;2210;51.938;8.488;2023-07-08T04:43:17;3.07;;;1.70;;
4391;SDS011;2210;51.938;8.488;2023-07-08T04:47:18;2.10;;;1.73;;
4391;SDS011;2210;51.938;8.488;2023-07-08T04:51:20;2.13;;;1.70;;
4391;SDS011;2210;51.938;8.488;2023-07-08T04:55:21;3.33;;;1.77;;
4391;SDS011;2210;51.938;8.488;2023-07-08T04:59:23;2.80;;;1.60;;
4391;SDS011;2210;51.938;8.488;2023-07-08T05:03:28;2.27;;;2.00;;
4391;SDS011;2210;51.938;8.488;2023-07-08T05:07:28;3.13;;;1.80;;
4391;SDS011;2210;51.938;8.488;2023-07-08T05:11:32;1.80;;;1.57;;
4391;SDS011;2210;51.938;8.488;2023-07-08T05:15:32;2.40;;;1.97;;
4391;SDS011;2210;51.938;8.488;2023-07-08T05:19:33;5.90;;;1.87;;
4391;SDS011;2210;51.938;8.488;2023-07-08T05:23:33;3.40;;;1.87;;
4391;SDS011;2210;51.938;8.488;2023-07-08T05:27:33;1.77;;;1.53;;
4391;SDS011;2210;51.938;8.488;2023-07-08T05:31:34;2.17;;;1.60;;
4391;SDS011;2210;51.938;8.488;2023-07-08T05:35:37;2.70;;;1.73;;
4391;SDS011;2210;51.938;8.488;2023-07-08T05:39:40;3.30;;;1.93;;
4391;SDS011;2210;51.938;8.488;2023-07-08T05:43:41;2.70;;;1.90;;
4391;SDS011;2210;51.938;8.488;2023-07-08T05:47:41;2.30;;;1.83;;
4391;SDS011;2210;51.938;8.488;2023-07-08T05:51:42;2.97;;;1.90;;
4391;SDS011;2210;51.938;8.488;2023-07-08T05:55:43;3.60;;;2.00;;
4391;SDS011;2210;51.938;8.488;2023-07-08T05:59:44;2.70;;;1.87;;
4391;SDS011;2210;51.938;8.488;2023-07-08T06:03:44;7.57;;;2.20;;
4391;SDS011;2210;51.938;8.488;2023-07-08T06:07:45;3.15;;;1.60;;
4391;SDS011;2210;51.938;8.488;2023-07-08T06:11:45;2.00;;;1.73;;
4391;SDS011;2210;51.938;8.488;2023-07-08T06:15:45;3.80;;;2.28;;
4391;SDS011;2210;51.938;8.488;2023-07-08T06:19:45;4.03;;;1.97;;
4391;SDS011;2210;51.938;8.488;2023-07-08T06:23:46;3.22;;;2.08;;
4391;SDS011;2210;51.938;8.488;2023-07-08T06:27:49;1.93;;;1.60;;
4391;SDS011;2210;51.938;8.488;2023-07-08T06:31:53;2.50;;;2.00;;
4391;SDS011;2210;51.938;8.488;2023-07-08T06:35:53;4.53;;;1.53;;
4391;SDS011;2210;51.938;8.488;2023-07-08T06:39:53;1.52;;;1.30;;
4391;SDS011;2210;51.938;8.488;2023-07-08T06:43:54;3.20;;;2.03;;
4391;SDS011;2210;51.938;8.488;2023-07-08T06:47:54;3.13;;;1.75;;
4391;SDS011;2210;51.938;8.488;2023-07-08T06:51:54;1.87;;;1.67;;
4391;SDS011;2210;51.938;8.488;2023-07-08T06:55:57;3.33;;;1.47;;
4391;SDS011;2210;51.938;8.488;2023-07-08T06:59:57;2.10;;;1.90;;
4391;SDS011;2210;51.938;8.488;2023-07-08T07:04:01;3.00;;;1.50;;
4391;SDS011;2210;51.938;8.488;2023-07-08T07:08:02;2.27;;;1.80;;
4391;SDS011;2210;51.938;8.488;2023-07-08T07:12:02;5.53;;;1.57;;
4391;SDS011;2210;51.938;8.488;2023-07-08T07:16:05;2.80;;;1.90;;
4391;SDS011;2210;51.938;8.488;2023-07-08T07:20:05;3.60;;;1.90;;
4391;SDS011;2210;51.938;8.488;2023-07-08T07:24:06;3.50;;;1.80;;
4391;SDS011;2210;51.938;8.488;2023-07-08T07:28:07;13.20;;;1.90;;
4391;SDS011;2210;51.938;8.488;2023-07-08T07:32:11;2.13;;;1.77;;
4391;SDS011;2210;51.938;8.488;2023-07-08T07:36:12;2.03;;;1.50;;
4391;SDS011;2210;51.938;8.488;2023-07-08T07:40:15;3.72;;;2.00;;
4391;SDS011;2210;51.938;8.488;2023-07-08T07:44:15;3.10;;;1.83;;
4391;SDS011;2210;51.938;8.488;2023-07-08T07:48:19;2.20;;;1.83;;
4391;SDS011;2210;51.938;8.488;2023-07-08T07:52:26;2.67;;;1.93;;
4391;SDS011;2210;51.938;8.488;2023-07-08T07:56:26;1.93;;;1.73;;
4391;SDS011;2210;51.938;8.488;2023-07-08T08:00:26;5.27;;;2.10;;
4391;SDS011;2210;51.938;8.488;2023-07-08T08:04:27;4.77;;;1.73;;
4391;SDS011;2210;51.938;8.488;2023-07-08T08:08:27;1.83;;;1.50;;
4391;SDS011;2210;51.938;8.488;2023-07-08T08:12:27;4.13;;;2.20;;
4391;SDS011;2210;51.938;8.488;2023-07-08T08:16:27;2.70;;;2.10;;
4391;SDS011;2210;51.938;8.488;2023-07-08T08:20:28;2.77;;;1.87;;
4391;SDS011;2210;51.938;8.488;2023-07-08T08:24:29;5.67;;;2.23;;
4391;SDS011;2210;51.938;8.488;2023-07-08T08:28:41;3.30;;;1.83;;
4391;SDS011;2210;51.938;8.488;2023-07-08T08:32:42;3.30;;;2.27;;
4391;SDS011;2210;51.938;8.488;2023-07-08T08:36:42;3.10;;;2.10;;
4391;SDS011;2210;51.938;8.488;2023-07-08T08:40:42;2.30;;;1.90;;
4391;SDS011;2210;51.938;8.488;2023-07-08T08:44:43;2.87;;;2.03;;
4391;SDS011;2210;51.938;8.488;2023-07-08T08:48:53;6.90;;;2.20;;
4391;SDS011;2210;51.938;8.488;2023-07-08T08:53:09;2.93;;;1.97;;
4391;SDS011;2210;51.938;8.488;2023-07-08T09:01:36;2.80;;;2.40;;
4391;SDS011;2210;51.938;8.488;2023-07-08T09:05:36;6.50;;;2.23;;
4391;SDS011;2210;51.938;8.488;2023-07-08T09:09:46;5.20;;;2.27;;
4391;SDS011;2210;51.938;8.488;2023-07-08T09:13:59;1.80;;;1.60;;
4391;SDS011;2210;51.938;8.488;2023-07-08T09:18:17;2.40;;;2.00;;
4391;SDS011;2210;51.938;8.488;2023-07-08T09:26:46;2.10;;;1.70;;
4391;SDS011;2210;51.938;8.488;2023-07-08T09:30:48;2.20;;;2.00;;
4391;SDS011;2210;51.938;8.488;2023-07-08T09:35:02;2.27;;;2.03;;
4391;SDS011;2210;51.938;8.488;2023-07-08T09:39:05;2.40;;;2.13;;
4391;SDS011;2210;51.938;8.488;2023-07-08T09:47:26;2.87;;;2.50;;
4391;SDS011;2210;51.938;8.488;2023-07-08T09:51:30;2.70;;;2.40;;
4391;SDS011;2210;51.938;8.488;2023-07-08T09:55:30;2.53;;;1.88;;
4391;SDS011;2210;51.938;8.488;2023-07-08T09:59:32;3.87;;;2.70;;
4391;SDS011;2210;51.938;8.488;2023-07-08T10:03:37;3.30;;;2.37;;
4391;SDS011;2210;51.938;8.488;2023-07-08T10:07:38;4.00;;;2.13;;
4391;SDS011;2210;51.938;8.488;2023-07-08T10:11:40;4.20;;;2.50;;
4391;SDS011;2210;51.938;8.488;2023-07-08T10:15:46;3.60;;;2.53;;
4391;SDS011;2210;51.938;8.488;2023-07-08T10:19:50;2.90;;;2.43;;
4391;SDS011;2210;51.938;8.488;2023-07-08T10:24:00;2.87;;;2.13;;
4391;SDS011;2210;51.938;8.488;2023-07-08T10:28:40;5.03;;;2.50;;
4391;SDS011;2210;51.938;8.488;2023-07-08T10:33:00;3.37;;;2.47;;
4391;SDS011;2210;51.938;8.488;2023-07-08T10:37:22;3.33;;;2.60;;
4391;SDS011;2210;51.938;8.488;2023-07-08T10:41:51;4.27;;;2.47;;
4391;SDS011;2210;51.938;8.488;2023-07-08T10:50:11;3.10;;;2.40;;
4391;SDS011;2210;51.938;8.488;2023-07-08T10:54:29;4.97;;;2.60;;
4391;SDS011;2210;51.938;8.488;2023-07-08T11:07:45;4.10;;;2.50;;
4391;SDS011;2210;51.938;8.488;2023-07-08T11:12:17;2.87;;;2.40;;
4391;SDS011;2210;51.938;8.488;2023-07-08T11:16:32;3.10;;;2.60;;
4391;SDS011;2210;51.938;8.488;2023-07-08T11:24:59;5.97;;;2.70;;
4391;SDS011;2210;51.938;8.488;2023-07-08T11:29:04;3.23;;;2.87;;
4391;SDS011;2210;51.938;8.488;2023-07-08T11:33:15;6.43;;;2.50;;
4391;SDS011;2210;51.938;8.488;2023-07-08T11:37:23;3.27;;;2.50;;
4391;SDS011;2210;51.938;8.488;2023-07-08T11:41:39;3.50;;;2.77;;
4391;SDS011;2210;51.938;8.488;2023-07-08T11:45:39;4.10;;;2.60;;
4391;SDS011;2210;51.938;8.488;2023-07-08T11:49:43;3.23;;;2.73;;
4391;SDS011;2210;51.938;8.488;2023-07-08T11:53:47;3.10;;;2.43;;
4391;SDS011;2210;51.938;8.488;2023-07-08T11:57:49;4.17;;;2.43;;
4391;SDS011;2210;51.938;8.488;2023-07-08T12:02:30;2.67;;;2.33;;
4391;SDS011;2210;51.938;8.488;2023-07-08T12:10:40;4.00;;;3.13;;
4391;SDS011;2210;51.938;8.488;2023-07-08T12:14:46;3.27;;;2.60;;
4391;SDS011;2210;51.938;8.488;2023-07-08T12:18:46;4.37;;;3.10;;
4391;SDS011;2210;51.938;8.488;2023-07-08T12:22:49;3.07;;;2.63;;
4391;SDS011;2210;51.938;8.488;2023-07-08T12:26:50;3.97;;;2.77;;
4391;SDS011;2210;51.938;8.488;2023-07-08T12:30:50;3.60;;;2.88;;
4391;SDS011;2210;51.938;8.488;2023-07-08T12:34:51;5.43;;;2.40;;
4391;SDS011;2210;51.938;8.488;2023-07-08T12:38:56;4.30;;;3.50;;
4391;SDS011;2210;51.938;8.488;2023-07-08T12:42:58;2.60;;;2.40;;
4391;SDS011;2210;51.938;8.488;2023-07-08T12:47:13;3.27;;;2.60;;
4391;SDS011;2210;51.938;8.488;2023-07-08T12:51:15;4.17;;;3.07;;
4391;SDS011;2210;51.938;8.488;2023-07-08T12:55:17;9.33;;;3.10;;
4391;SDS011;2210;51.938;8.488;2023-07-08T12:59:18;3.80;;;2.60;;
4391;SDS011;2210;51.938;8.488;2023-07-08T13:03:22;4.80;;;3.30;;
4391;SDS011;2210;51.938;8.488;2023-07-08T13:07:36;4.73;;;3.33;;
4391;SDS011;2210;51.938;8.488;2023-07-08T13:11:41;4.93;;;3.47;;
4391;SDS011;2210;51.938;8.488;2023-07-08T13:15:45;3.37;;;2.87;;
4391;SDS011;2210;51.938;8.488;2023-07-08T13:19:48;3.73;;;3.33;;
4391;SDS011;2210;51.938;8.488;2023-07-08T13:23:55;4.23;;;3.33;;
4391;SDS011;2210;51.938;8.488;2023-07-08T13:27:56;3.33;;;2.70;;
4391;SDS011;2210;51.938;8.488;2023-07-08T13:32:05;3.87;;;2.90;;
4391;SDS011;2210;51.938;8.488;2023-07-08T13:36:06;3.80;;;3.10;;
4391;SDS011;2210;51.938;8.488;2023-07-08T13:40:07;3.90;;;2.90;;
4391;SDS011;2210;51.938;8.488;2023-07-08T13:44:08;3.53;;;3.17;;
4391;SDS011;2210;51.938;8.488;2023-07-08T13:48:13;3.40;;;3.10;;
4391;SDS011;2210;51.938;8.488;2023-07-08T13:52:20;4.63;;;3.03;;
4391;SDS011;2210;51.938;8.488;2023-07-08T13:56:22;3.93;;;3.17;;
4391;SDS011;2210;51.938;8.488;2023-07-08T14:00:28;4.00;;;3.03;;
4391;SDS011;2210;51.938;8.488;2023-07-08T14:04:30;3.27;;;2.70;;
4391;SDS011;2210;51.938;8.488;2023-07-08T14:08:33;5.13;;;3.13;;
4391;SDS011;2210;51.938;8.488;2023-07-08T14:12:33;3.50;;;2.78;;
4391;SDS011;2210;51.938;8.488;2023-07-08T14:16:33;7.20;;;2.88;;
4391;SDS011;2210;51.938;8.488;2023-07-08T14:20:37;5.30;;;3.30;;
4391;SDS011;2210;51.938;8.488;2023-07-08T14:24:37;4.30;;;3.30;;
4391;SDS011;2210;51.938;8.488;2023-07-08T14:28:38;4.67;;;3.03;;
4391;SDS011;2210;51.938;8.488;2023-07-08T14:32:38;4.10;;;3.22;;
4391;SDS011;2210;51.938;8.488;2023-07-08T14:36:42;4.37;;;3.20;;
4391;SDS011;2210;51.938;8.488;2023-07-08T14:40:42;3.37;;;2.93;;
4391;SDS011;2210;51.938;8.488;2023-07-08T14:44:46;4.10;;;2.90;;
4391;SDS011;2210;51.938;8.488;2023-07-08T14:48:52;4.30;;;3.17;;
4391;SDS011;2210;51.938;8.488;2023-07-08T14:52:53;3.33;;;2.90;;
4391;SDS011;2210;51.938;8.488;2023-07-08T14:56:53;3.28;;;2.95;;
4391;SDS011;2210;51.938;8.488;2023-07-08T15:00:57;5.17;;;3.37;;
4391;SDS011;2210;51.938;8.488;2023-07-08T15:04:58;2.87;;;2.57;;
4391;SDS011;2210;51.938;8.488;2023-07-08T15:08:59;4.53;;;3.08;;
4391;SDS011;2210;51.938;8.488;2023-07-08T15:12:59;5.10;;;3.10;;
4391;SDS011;2210;51.938;8.488;2023-07-08T15:17:00;5.10;;;3.60;;
4391;SDS011;2210;51.938;8.488;2023-07-08T15:21:00;5.70;;;2.67;;
4391;SDS011;2210;51.938;8.488;2023-07-08T15:25:00;3.13;;;2.60;;
4391;SDS011;2210;51.938;8.488;2023-07-08T15:29:01;2.77;;;2.47;;
4391;SDS011;2210;51.938;8.488;2023-07-08T15:33:02;3.23;;;2.50;;
4391;SDS011;2210;51.938;8.488;2023-07-08T15:37:02;3.97;;;3.03;;
4391;SDS011;2210;51.938;8.488;2023-07-08T15:41:02;3.43;;;3.00;;
4391;SDS011;2210;51.938;8.488;2023-07-08T15:45:21;5.73;;;3.00;;
4391;SDS011;2210;51.938;8.488;2023-07-08T15:49:26;3.40;;;2.87;;
4391;SDS011;2210;51.938;8.488;2023-07-08T15:53:30;3.60;;;3.10;;
4391;SDS011;2210;51.938;8.488;2023-07-08T15:57:30;4.90;;;3.40;;
4391;SDS011;2210;51.938;8.488;2023-07-08T16:01:30;3.03;;;2.73;;
4391;SDS011;2210;51.938;8.488;2023-07-08T16:05:33;4.37;;;2.87;;
4391;SDS011;2210;51.938;8.488;2023-07-08T16:09:36;3.73;;;3.03;;
4391;SDS011;2210;51.938;8.488;2023-07-08T16:13:36;4.97;;;2.87;;
4391;SDS011;2210;51.938;8.488;2023-07-08T16:17:37;4.10;;;3.13;;
4391;SDS011;2210;51.938;8.488;2023-07-08T16:21:38;4.43;;;3.03;;
4391;SDS011;2210;51.938;8.488;2023-07-08T16:25:40;4.67;;;3.37;;
4391;SDS011;2210;51.938;8.488;2023-07-08T16:29:43;5.17;;;3.10;;
4391;SDS011;2210;51.938;8.488;2023-07-08T16:33:45;5.10;;;3.13;;
4391;SDS011;2210;51.938;8.488;2023-07-08T16:37:47;5.37;;;3.20;;
4391;SDS011;2210;51.938;8.488;2023-07-08T16:41:48;5.33;;;3.03;;
4391;SDS011;2210;51.938;8.488;2023-07-08T16:45:50;3.10;;;2.63;;
4391;SDS011;2210;51.938;8.488;2023-07-08T16:49:50;5.27;;;3.40;;
4391;SDS011;2210;51.938;8.488;2023-07-08T16:53:50;4.03;;;2.90;;
4391;SDS011;2210;51.938;8.488;2023-07-08T16:57:56;4.93;;;2.80;;
4391;SDS011;2210;51.938;8.488;2023-07-08T17:01:56;4.97;;;2.63;;
4391;SDS011;2210;51.938;8.488;2023-07-08T17:05:56;3.60;;;2.42;;
4391;SDS011;2210;51.938;8.488;2023-07-08T17:09:56;6.60;;;3.57;;
4391;SDS011;2210;51.938;8.488;2023-07-08T17:13:57;7.22;;;3.47;;
4391;SDS011;2210;51.938;8.488;2023-07-08T17:17:58;5.15;;;3.10;;
4391;SDS011;2210;51.938;8.488;2023-07-08T17:22:03;3.67;;;3.03;;
4391;SDS011;2210;51.938;8.488;2023-07-08T17:26:13;2.90;;;2.57;;
4391;SDS011;2210;51.938;8.488;2023-07-08T17:30:30;4.43;;;3.33;;
4391;SDS011;2210;51.938;8.488;2023-07-08T17:34:34;3.67;;;2.90;;
4391;SDS011;2210;51.938;8.488;2023-07-08T17:42:45;3.70;;;3.13;;
4391;SDS011;2210;51.938;8.488;2023-07-08T17:46:52;9.33;;;2.70;;
4391;SDS011;2210;51.938;8.488;2023-07-08T17:51:00;5.03;;;2.57;;
4391;SDS011;2210;51.938;8.488;2023-07-08T17:55:02;5.80;;;3.30;;
4391;SDS011;2210;51.938;8.488;2023-07-08T17:59:03;3.70;;;3.13;;
4391;SDS011;2210;51.938;8.488;2023-07-08T18:03:05;3.57;;;2.67;;
4391;SDS011;2210;51.938;8.488;2023-07-08T18:07:05;5.90;;;3.47;;
4391;SDS011;2210;51.938;8.488;2023-07-08T18:11:16;3.50;;;3.20;;
4391;SDS011;2210;51.938;8.488;2023-07-08T18:15:29;4.40;;;3.50;;
4391;SDS011;2210;51.938;8.488;2023-07-08T18:19:33;3.37;;;2.83;;
4391;SDS011;2210;51.938;8.488;2023-07-08T18:23:33;3.78;;;2.92;;
4391;SDS011;2210;51.938;8.488;2023-07-08T18:27:35;3.50;;;2.80;;
4391;SDS011;2210;51.938;8.488;2023-07-08T18:31:36;3.60;;;3.03;;
4391;SDS011;2210;51.938;8.488;2023-07-08T18:35:39;5.13;;;3.33;;
4391;SDS011;2210;51.938;8.488;2023-07-08T18:39:40;2.90;;;2.43;;
4391;SDS011;2210;51.938;8.488;2023-07-08T18:43:40;4.95;;;3.10;;
4391;SDS011;2210;51.938;8.488;2023-07-08T18:47:40;4.07;;;2.50;;
4391;SDS011;2210;51.938;8.488;2023-07-08T18:51:41;3.08;;;2.75;;
4391;SDS011;2210;51.938;8.488;2023-07-08T18:55:44;6.50;;;3.03;;
4391;SDS011;2210;51.938;8.488;2023-07-08T18:59:45;4.00;;;3.20;;
4391;SDS011;2210;51.938;8.488;2023-07-08T19:03:45;4.05;;;3.22;;
4391;SDS011;2210;51.938;8.488;2023-07-08T19:07:46;4.47;;;3.67;;
4391;SDS011;2210;51.938;8.488;2023-07-08T19:11:47;5.40;;;2.97;;
4391;SDS011;2210;51.938;8.488;2023-07-08T19:15:51;3.70;;;2.87;;
4391;SDS011;2210;51.938;8.488;2023-07-08T19:19:55;4.50;;;3.50;;
4391;SDS011;2210;51.938;8.488;2023-07-08T19:23:55;7.00;;;3.30;;
4391;SDS011;2210;51.938;8.488;2023-07-08T19:27:56;4.60;;;3.30;;
4391;SDS011;2210;51.938;8.488;2023-07-08T19:31:56;3.70;;;2.80;;
4391;SDS011;2210;51.938;8.488;2023-07-08T19:35:57;4.37;;;2.80;;
4391;SDS011;2210;51.938;8.488;2023-07-08T19:40:03;4.03;;;3.20;;
4391;SDS011;2210;51.938;8.488;2023-07-08T19:44:14;5.10;;;2.67;;
4391;SDS011;2210;51.938;8.488;2023-07-08T19:48:17;6.00;;;2.67;;
4391;SDS011;2210;51.938;8.488;2023-07-08T19:52:17;4.57;;;3.00;;
4391;SDS011;2210;51.938;8.488;2023-07-08T19:56:18;4.68;;;3.50;;
4391;SDS011;2210;51.938;8.488;2023-07-08T20:04:43;5.10;;;3.27;;
4391;SDS011;2210;51.938;8.488;2023-07-08T20:08:50;5.23;;;3.83;;
4391;SDS011;2210;51.938;8.488;2023-07-08T20:12:51;4.37;;;3.90;;
4391;SDS011;2210;51.938;8.488;2023-07-08T20:17:01;4.13;;;3.37;;
4391;SDS011;2210;51.938;8.488;2023-07-08T20:21:08;5.20;;;3.57;;
4391;SDS011;2210;51.938;8.488;2023-07-08T20:25:12;3.77;;;3.37;;
4391;SDS011;2210;51.938;8.488;2023-07-08T20:29:14;4.57;;;3.50;;
4391;SDS011;2210;51.938;8.488;2023-07-08T20:33:16;4.17;;;3.23;;
4391;SDS011;2210;51.938;8.488;2023-07-08T20:37:17;4.70;;;3.80;;
4391;SDS011;2210;51.938;8.488;2023-07-08T20:41:22;4.73;;;3.50;;
4391;SDS011;2210;51.938;8.488;2023-07-08T20:45:26;3.90;;;3.03;;
4391;SDS011;2210;51.938;8.488;2023-07-08T20:49:28;4.80;;;3.27;;
4391;SDS011;2210;51.938;8.488;2023-07-08T20:53:28;4.00;;;3.53;;
4391;SDS011;2210;51.938;8.488;2023-07-08T20:57:28;5.83;;;3.93;;
4391;SDS011;2210;51.938;8.488;2023-07-08T21:01:29;5.23;;;4.10;;
4391;SDS011;2210;51.938;8.488;2023-07-08T21:05:31;5.40;;;3.50;;
4391;SDS011;2210;51.938;8.488;2023-07-08T21:09:38;5.10;;;3.67;;
4391;SDS011;2210;51.938;8.488;2023-07-08T21:13:38;4.47;;;3.63;;
4391;SDS011;2210;51.938;8.488;2023-07-08T21:17:39;6.50;;;3.80;;
4391;SDS011;2210;51.938;8.488;2023-07-08T21:21:40;3.33;;;3.03;;
4391;SDS011;2210;51.938;8.488;2023-07-08T21:25:41;7.37;;;3.50;;
4391;SDS011;2210;51.938;8.488;2023-07-08T21:29:43;3.77;;;2.90;;
4391;SDS011;2210;51.938;8.488;2023-07-08T21:33:43;3.83;;;3.17;;
4391;SDS011;2210;51.938;8.488;2023-07-08T21:37:46;4.97;;;3.77;;
4391;SDS011;2210;51.938;8.488;2023-07-08T21:41:49;5.00;;;3.70;;
4391;SDS011;2210;51.938;8.488;2023-07-08T21:45:49;3.80;;;3.40;;
4391;SDS011;2210;51.938;8.488;2023-07-08T21:49:52;5.83;;;3.50;;
4391;SDS011;2210;51.938;8.488;2023-07-08T21:53:55;4.60;;;3.90;;
4391;SDS011;2210;51.938;8.488;2023-07-08T21:58:02;4.30;;;3.53;;
4391;SDS011;2210;51.938;8.488;2023-07-08T22:02:07;4.23;;;3.57;;
4391;SDS011;2210;51.938;8.488;2023-07-08T22:06:11;5.33;;;3.57;;
4391;SDS011;2210;51.938;8.488;2023-07-08T22:10:16;4.33;;;3.20;;
4391;SDS011;2210;51.938;8.488;2023-07-08T22:14:19;6.50;;;3.50;;
4391;SDS011;2210;51.938;8.488;2023-07-08T22:18:27;6.37;;;3.70;;
4391;SDS011;2210;51.938;8.488;2023-07-08T22:22:28;5.47;;;4.10;;
4391;SDS011;2210;51.938;8.488;2023-07-08T22:26:32;4.67;;;4.07;;
4391;SDS011;2210;51.938;8.488;2023-07-08T22:30:35;7.07;;;3.90;;
4391;SDS011;2210;51.938;8.488;2023-07-08T22:34:35;5.95;;;3.67;;
4391;SDS011;2210;51.938;8.488;2023-07-08T22:38:36;6.65;;;4.47;;
4391;SDS011;2210;51.938;8.488;2023-07-08T22:42:36;5.38;;;3.85;;
4391;SDS011;2210;51.938;8.488;2023-07-08T22:46:45;4.40;;;3.70;;
4391;SDS011;2210;51.938;8.488;2023-07-08T22:50:46;5.50;;;4.27;;
4391;SDS011;2210;51.938;8.488;2023-07-08T22:54:48;6.50;;;4.33;;
4391;SDS011;2210;51.938;8.488;2023-07-08T22:58:48;8.07;;;3.80;;
4391;SDS011;2210;51.938;8.488;2023-07-08T23:02:48;5.88;;;3.97;;
4391;SDS011;2210;51.938;8.488;2023-07-08T23:06:49;6.77;;;4.33;;
4391;SDS011;2210;51.938;8.488;2023-07-08T23:10:51;7.90;;;4.00;;
4391;SDS011;2210;51.938;8.488;2023-07-08T23:14:51;5.97;;;4.20;;
4391;SDS011;2210;51.938;8.488;2023-07-08T23:18:51;5.70;;;4.03;;
4391;SDS011;2210;51.938;8.488;2023-07-08T23:22:52;5.60;;;4.20;;
4391;SDS011;2210;51.938;8.488;2023-07-08T23:26:53;4.90;;;3.65;;
4391;SDS011;2210;51.938;8.488;2023-07-08T23:30:56;4.23;;;3.63;;
4391;SDS011;2210;51.938;8.488;2023-07-08T23:34:56;8.30;;;4.23;;
4391;SDS011;2210;51.938;8.488;2023-07-08T23:38:57;7.53;;;4.13;;
4391;SDS011;2210;51.938;8.488;2023-07-08T23:43:00;4.53;;;3.67;;
4391;SDS011;2210;51.938;8.488;2023-07-08T23:47:03;4.27;;;3.40;;
4391;SDS011;2210;51.938;8.488;2023-07-08T23:51:07;4.20;;;3.70;;
4391;SDS011;2210;51.938;8.488;2023-07-08T23:55:07;5.53;;;3.60;;
4391;SDS011;2210;51.938;8.488;2023-07-08T23:59:11;4.07;;;3.60;;
